CDT,Max TemperatureF,Mean TemperatureF,Min TemperatureF,Max Dew PointF,MeanDew PointF,Min DewpointF,Max Humidity, Mean Humidity, Min Humidity, Max Sea Level PressureIn, Mean Sea Level PressureIn, Min Sea Level PressureIn, Max VisibilityMiles, Mean VisibilityMiles, Min VisibilityMiles, Max Wind SpeedMPH, Mean Wind SpeedMPH, Max Gust SpeedMPH,PrecipitationIn, CloudCover, Events, WindDirDegrees
2013-4-1,50,46,36,46,30,23,90,56,34,30.19,30.10,29.90,10,10,10,14,9,21,0.00,1,,330
2013-4-2,50,40,31,29,21,14,74,47,26,30.33,30.28,30.21,10,10,10,10,5,,0.00,0,,337
2013-4-3,52,43,34,28,20,17,70,39,25,30.39,30.31,30.25,10,10,10,15,7,20,0.00,0,,62
2013-4-4,57,49,41,35,25,17,73,43,33,30.24,30.11,30.02,10,10,10,13,7,,0.00,0,,104
2013-4-5,66,50,34,36,34,31,92,56,28,30.12,30.09,30.04,10,10,7,17,3,21,0.00,0,,322
2013-4-6,73,59,45,43,39,30,66,47,30,30.12,30.02,29.90,10,10,10,21,7,26,0.00,0,,165
2013-4-7,74,66,57,56,50,42,67,58,51,29.99,29.95,29.90,10,10,10,16,12,21,0.00,3,,205
2013-4-8,74,64,54,60,54,47,78,68,52,29.97,29.92,29.88,10,10,10,22,10,29,0.00,4,,184
2013-4-9,79,69,59,64,61,54,84,71,56,30.05,29.98,29.93,10,10,10,21,10,28,0.00,3,,179
2013-4-10,83,74,65,66,63,59,87,67,49,29.95,29.86,29.73,10,10,10,24,13,29,0.00,2,,186
2013-4-11,74,62,47,65,61,43,100,95,55,29.77,29.71,29.59,10,5,1,21,10,29,1.57,7,Rain-Thunderstorm,195
2013-4-12,54,45,36,41,37,35,93,70,52,30.04,29.85,29.74,10,10,10,20,12,28,0.00,4,,284
2013-4-13,63,48,34,41,37,33,93,63,42,30.10,30.05,30.00,10,10,10,15,6,24,0.00,0,,239
2013-4-14,74,60,47,50,45,40,77,57,37,29.99,29.90,29.81,10,10,10,18,10,26,0.00,0,,154
2013-4-15,75,65,55,60,56,51,87,72,56,29.98,29.92,29.88,10,10,10,16,11,20,0.00,4,,164
2013-4-16,81,72,63,73,66,59,100,84,67,30.09,30.04,29.92,10,8,1,15,9,21,0.39,4,Rain-Thunderstorm,184
2013-4-17,84,72,61,72,66,62,100,82,63,30.10,30.02,29.86,10,7,2,17,5,20,0.00,3,Rain-Thunderstorm,167
2013-4-18,81,67,52,68,62,52,100,79,54,29.85,29.71,29.62,10,7,1,31,16,38,0.74,4,Rain,215
2013-4-19,51,47,39,50,40,34,100,78,56,30.10,29.85,29.65,10,8,2,20,15,28,0.53,7,Rain-Thunderstorm,277
2013-4-20,61,48,36,45,33,26,93,60,32,30.37,30.25,30.11,10,10,10,12,6,,0.00,0,,330
2013-4-21,63,53,43,34,32,28,63,46,27,30.47,30.38,30.30,10,10,10,12,9,,0.00,0,,78
2013-4-22,72,58,45,48,41,31,64,51,39,30.30,30.20,30.09,10,10,10,14,6,,0.00,1,,143
2013-4-23,72,62,52,56,52,44,75,67,53,30.10,29.99,29.85,10,10,10,24,10,30,0.00,2,Rain,174
2013-4-24,66,54,41,59,46,37,100,89,63,30.31,30.02,29.87,10,7,1,20,12,28,0.79,7,Rain-Thunderstorm,306
2013-4-25,63,48,34,47,39,35,100,66,39,30.38,30.34,30.29,10,10,7,14,6,21,0.00,1,,249
2013-4-26,63,54,45,47,41,36,80,62,44,30.46,30.38,30.31,10,10,10,13,5,,0.00,3,,143
2013-4-27,59,54,50,59,54,47,100,92,83,30.34,30.12,29.93,10,8,2,15,6,22,0.06,8,Rain-Thunderstorm,130
2013-4-28,61,58,54,61,57,54,100,94,83,29.96,29.91,29.87,10,7,1,13,9,,0.00,8,Rain-Thunderstorm,232
2013-4-29,73,62,52,59,55,53,100,77,49,30.02,29.97,29.91,10,8,3,9,4,,0.00,4,,172
2013-4-30,81,66,52,60,55,51,93,65,38,30.02,29.98,29.93,10,10,10,10,6,,0.00,0,,157